Brighton City Airport

EGKA · England, United Kingdom

METAR history EGKA · Brighton City Airport

Below you see METARs of the last few days. Select a year to browse through older METARs, from the year 2007 onwards.

May 26, 2024

Time Code Weather Temp. Visibility Ceiling Wind METAR/SPECI
02:20
V
12 °C 10 km+ - 030° 030° 5 kt METAR EGKK 260120Z 03005KT 9999 -RA NSC 12/12 Q1012
01:50
V
13 °C 10 km+ - Var Var 2 kt METAR EGKK 260050Z VRB02KT 9999 -RA NSC 13/12 Q1013
01:20
V
13 °C 8 km - 200° 200° 6 kt METAR EGKK 260020Z 20006KT 160V240 8000 -RA FEW020 13/11 Q1014
00:50
V
14 °C 10 km+ - Var Var 2 kt METAR EGKK 252350Z VRB02KT 9999 -RA NSC 14/10 Q1013
00:20
V
14 °C 10 km+ - 080° 080° 5 kt METAR EGKK 252320Z 08005KT CAVOK 14/09 Q1013

May 25, 2024

Time Code Weather Temp. Visibility Ceiling Wind METAR/SPECI
23:50
V
14 °C 10 km+ - 100° 100° 5 kt METAR EGKK 252250Z 10005KT 060V130 CAVOK 14/09 Q1013
23:20
V
15 °C 10 km+ - 140° 140° 5 kt METAR EGKK 252220Z 14005KT 100V180 CAVOK 15/09 Q1014
22:50
V
15 °C 10 km+ - 140° 140° 6 kt METAR EGKK 252150Z 14006KT 110V170 CAVOK 15/08 Q1014
22:20
V
15 °C 10 km+ - 150° 150° 4 kt METAR EGKK 252120Z 15004KT CAVOK 15/09 Q1014
21:50
V
16 °C 10 km+ - 140° 140° 5 kt METAR EGKK 252050Z 14005KT 110V170 CAVOK 16/09 Q1014
21:20
V
16 °C 10 km+ - 140° 140° 3 kt METAR EGKK 252020Z 14003KT 110V170 CAVOK 16/09 Q1014
20:50
V
16 °C 10 km+ - 160° 160° 4 kt METAR EGKK 251950Z 16004KT CAVOK 16/08 Q1014
20:20
V
17 °C 10 km+ - 160° 160° 4 kt METAR EGKK 251920Z 16004KT 130V200 CAVOK 17/08 Q1014
19:50
V
17 °C 10 km+ - 160° 160° 4 kt METAR EGKK 251850Z 16004KT 130V200 CAVOK 17/08 Q1014
19:20
V
18 °C 10 km+ - 200° 200° 3 kt METAR EGKK 251820Z 20003KT 160V230 CAVOK 18/08 Q1014
18:50
V
18 °C 10 km+ - 210° 210° 4 kt METAR EGKK 251750Z 21004KT 180V240 CAVOK 18/08 Q1015
18:20
V
18 °C 10 km+ - 230° 230° 5 kt METAR EGKK 251720Z 23005KT 180V260 CAVOK 18/08 Q1015
17:50
V
19 °C 10 km+ - 220° 220° 5 kt METAR EGKK 251650Z 22005KT 160V280 9999 FEW048 19/08 Q1015
17:20
V
19 °C 10 km+ - 240° 240° 4 kt METAR EGKK 251620Z 24004KT 150V300 9999 FEW047 19/08 Q1015
16:50
V
19 °C 10 km+ - 210° 210° 8 kt METAR EGKK 251550Z 21008KT 9999 FEW049 19/07 Q1015
16:20
V
19 °C 10 km+ - 180° 180° 6 kt METAR EGKK 251520Z 18006KT 120V240 9999 FEW049 19/07 Q1015
15:50
V
19 °C 10 km+ - 190° 190° 7 kt METAR EGKK 251450Z 19007KT 120V240 9999 FEW049 19/07 Q1016
15:20
V
18 °C 10 km+ - 240° 240° 6 kt METAR EGKK 251420Z 24006KT 9999 FEW049 18/07 Q1016
14:50
V
19 °C 10 km+ - 220° 220° 8 kt METAR EGKK 251350Z 22008KT 180V260 9999 SCT046 19/08 Q1016
14:20
V
18 °C 10 km+ - 270° 270° 4 kt METAR EGKK 251320Z 27004KT 240V320 9999 SCT047 18/08 Q1016
13:50
V
18 °C 10 km+ - Var Var 4 kt METAR EGKK 251250Z VRB04KT 9999 SCT047 18/07 Q1016
13:20
V
19 °C 10 km+ - 230° 230° 6 kt METAR EGKK 251220Z 23006KT 160V290 9999 SCT047 19/07 Q1017
12:50
V
19 °C 10 km+ - Var Var 4 kt METAR EGKK 251150Z VRB04KT 9999 SCT046 19/07 Q1017
12:20
V
18 °C 10 km+ - Var Var 2 kt METAR EGKK 251120Z VRB02KT 9999 SCT047 18/07 Q1017
11:50
V
17 °C 10 km+ - 170° 170° 3 kt METAR EGKK 251050Z 17003KT 070V220 9999 SCT040 17/08 Q1017
11:20
V
17 °C 10 km+ - 210° 210° 4 kt METAR EGKK 251020Z 21004KT 160V260 9999 FEW036 17/07 Q1017
10:50
V
16 °C 10 km+ - Var Var 3 kt METAR EGKK 250950Z VRB03KT 9999 FEW036 16/08 Q1017
10:20
V
16 °C 10 km+ - Var Var 3 kt METAR EGKK 250920Z VRB03KT 9999 FEW037 16/08 Q1018
09:50
V
16 °C 10 km+ - Var Var 4 kt METAR EGKK 250850Z VRB04KT 9999 FEW032 16/08 Q1018
09:20
V
16 °C 10 km+ - Var Var 2 kt METAR EGKK 250820Z VRB02KT 9999 FEW028 16/09 Q1018
08:50
V
15 °C 10 km+ - Var Var 2 kt METAR EGKK 250750Z VRB02KT 9999 FEW035 15/09 Q1018
08:20
V
14 °C 10 km+ - Var Var 2 kt METAR EGKK 250720Z VRB02KT 9999 FEW035 14/10 Q1018
07:50
V
13 °C 10 km+ - Var Var 1 kt METAR EGKK 250650Z VRB01KT 9999 FEW036 13/09 Q1018
07:20
V
11 °C 10 km+ - Var Var 2 kt METAR EGKK 250620Z VRB02KT CAVOK 11/09 Q1018
06:50
V
9 °C 10 km+ - 100° 100° 4 kt METAR EGKK 250550Z 10004KT 9999 FEW036 09/08 Q1018
06:20
V
9 °C 10 km+ 3,600 ft 110° 110° 3 kt METAR EGKK 250520Z 11003KT 9999 BKN036 09/08 Q1018
05:50
V
7 °C 10 km+ - 080° 080° 4 kt METAR EGKK 250450Z 08004KT 9999 FEW036 07/07 Q1018
05:20
V
8 °C 10 km+ - Var Var 2 kt METAR EGKK 250420Z VRB02KT 9999 SCT036 08/07 Q1018
04:50
V
7 °C 10 km+ - 090° 090° 3 kt METAR EGKK 250350Z 09003KT 9999 SCT036 07/06 Q1018
04:20
V
8 °C 10 km+ - 070° 070° 1 kt METAR EGKK 250320Z 07001KT 9999 SCT036 08/07 Q1018
03:50
V
7 °C 10 km+ - 100° 100° 2 kt METAR EGKK 250250Z 10002KT 9999 FEW036 07/07 Q1019
03:20
V
8 °C 10 km+ - Var Var 2 kt METAR EGKK 250220Z VRB02KT CAVOK 08/07 Q1019
02:50
V
9 °C 10 km+ - 360° 360° 0 kt METAR EGKK 250150Z 00000KT 9999 FEW042 09/07 Q1019
02:20
V
10 °C 10 km+ 4,200 ft Var Var 1 kt METAR EGKK 250120Z VRB01KT 9999 BKN042 10/07 Q1019
01:50
V
10 °C 10 km+ 4,200 ft Var Var 1 kt METAR EGKK 250050Z VRB01KT 9999 BKN042 10/07 Q1019
01:20
V
11 °C 10 km+ - Var Var 1 kt METAR EGKK 250020Z VRB01KT 9999 FEW043 11/07 Q1019
00:50
V
12 °C 10 km+ 4,200 ft 240° 240° 2 kt METAR EGKK 242350Z 24002KT 9999 BKN042 12/07 Q1019
00:20
V
12 °C 10 km+ 4,400 ft Var Var 2 kt METAR EGKK 242320Z VRB02KT 9999 BKN044 12/08 Q1019

May 24, 2024

Time Code Weather Temp. Visibility Ceiling Wind METAR/SPECI
23:50
V
12 °C 10 km+ 4,300 ft Var Var 2 kt METAR EGKK 242250Z VRB02KT 9999 BKN043 12/08 Q1019
23:20
V
12 °C 10 km+ 4,300 ft 230° 230° 4 kt METAR EGKK 242220Z 23004KT 9999 BKN043 BKN049 12/08 Q1019
22:50
V
13 °C 10 km+ 4,400 ft 220° 220° 4 kt METAR EGKK 242150Z 22004KT 9999 BKN044 13/08 Q1019
22:20
V
14 °C 10 km+ 4,600 ft 200° 200° 4 kt METAR EGKK 242120Z 20004KT 9999 BKN046 14/07 Q1019
21:50
V
14 °C 10 km+ - 200° 200° 4 kt METAR EGKK 242050Z 20004KT 9999 SCT046 14/07 Q1019
21:20
V
14 °C 10 km+ - 220° 220° 4 kt METAR EGKK 242020Z 22004KT 9999 FEW049 14/07 Q1019
20:50
V
14 °C 10 km+ - 230° 230° 4 kt METAR EGKK 241950Z 23004KT 9999 FEW048 14/08 Q1019
20:20
V
15 °C 10 km+ - 240° 240° 5 kt METAR EGKK 241920Z 24005KT CAVOK 15/08 Q1019
19:50
V
16 °C 10 km+ - 240° 240° 5 kt METAR EGKK 241850Z 24005KT CAVOK 16/08 Q1019
19:20
V
16 °C 10 km+ - 240° 240° 6 kt METAR EGKK 241820Z 24006KT 9999 FEW048 16/08 Q1019
18:50
V
17 °C 10 km+ - 240° 240° 7 kt METAR EGKK 241750Z 24007KT 9999 FEW034 17/08 Q1019
18:20
V
17 °C 10 km+ - 230° 230° 8 kt METAR EGKK 241720Z 23008KT 9999 FEW034 17/08 Q1018
17:50
V
17 °C 10 km+ - 230° 230° 9 kt METAR EGKK 241650Z 23009KT 9999 FEW034 17/08 Q1018
17:20
V
18 °C 10 km+ - 230° 230° 9 kt METAR EGKK 241620Z 23009KT 190V260 9999 FEW037 18/09 Q1018
16:50
V
17 °C 10 km+ - 200° 200° 8 kt METAR EGKK 241550Z 20008KT 150V240 9999 FEW033 17/09 Q1019
16:20
V
18 °C 10 km+ - 220° 220° 8 kt METAR EGKK 241520Z 22008KT 180V260 9999 SCT033 18/09 Q1019
15:50
V
17 °C 10 km+ - 230° 230° 6 kt METAR EGKK 241450Z 23006KT 150V270 9999 SCT035 17/09 Q1019
15:20
V
18 °C 10 km+ - 220° 220° 7 kt METAR EGKK 241420Z 22007KT 150V290 9999 SCT033 18/09 Q1019
14:50
V
17 °C 10 km+ - 190° 190° 8 kt METAR EGKK 241350Z 19008KT 160V220 9999 FEW033 17/09 Q1019
14:20
V
18 °C 10 km+ - 200° 200° 5 kt METAR EGKK 241320Z 20005KT 140V280 9999 SCT041 18/08 Q1019
13:50
V
16 °C 10 km+ - 300° 300° 5 kt METAR EGKK 241250Z 30005KT 230V360 9999 SCT042 16/07 Q1019
13:20
V
17 °C 10 km+ - 270° 270° 7 kt METAR EGKK 241220Z 27007KT 220V300 9999 SCT041 17/07 Q1019
12:50
V
17 °C 10 km+ - 230° 230° 6 kt METAR EGKK 241150Z 23006KT 190V280 9999 FEW035 SCT047 17/07 Q1019
12:20
V
16 °C 10 km+ - 210° 210° 6 kt METAR EGKK 241120Z 21006KT 160V260 9999 FEW034 SCT049 16/08 Q1019
11:50
V
16 °C 10 km+ - 250° 250° 3 kt METAR EGKK 241050Z 25003KT 160V310 9999 SCT035 16/07 Q1019
11:20
V
16 °C 10 km+ - 270° 270° 5 kt METAR EGKK 241020Z 27005KT 240V320 9999 SCT036 16/06 Q1019
10:50
V
16 °C 10 km+ - 240° 240° 6 kt METAR EGKK 240950Z 24006KT 200V290 9999 SCT032 16/07 Q1019
10:20
V
15 °C 10 km+ - 260° 260° 8 kt METAR EGKK 240920Z 26008KT 9999 SCT030 15/08 Q1019
09:50
V
15 °C 10 km+ - 240° 240° 6 kt METAR EGKK 240850Z 24006KT 9999 FEW028 15/08 Q1019
09:20
V
14 °C 10 km+ - 230° 230° 7 kt METAR EGKK 240820Z 23007KT 190V270 9999 FEW028 14/08 Q1019
08:50
V
14 °C 10 km+ - 240° 240° 6 kt METAR EGKK 240750Z 24006KT 9999 FEW045 14/07 Q1019
08:20
V
13 °C 10 km+ - 210° 210° 3 kt METAR EGKK 240720Z 21003KT 170V280 CAVOK 13/08 Q1019
07:50
V
12 °C 10 km+ - Var Var 2 kt METAR EGKK 240650Z VRB02KT CAVOK 12/08 Q1019
07:20
V
11 °C 10 km+ - 230° 230° 3 kt METAR EGKK 240620Z 23003KT 190V310 CAVOK 11/08 Q1018
06:50
V
10 °C 10 km+ - Var Var 2 kt METAR EGKK 240550Z VRB02KT CAVOK 10/07 Q1018
06:20
V
8 °C 10 km+ - Var Var 2 kt METAR EGKK 240520Z VRB02KT CAVOK 08/07 Q1018
05:50
V
7 °C 10 km+ - 240° 240° 3 kt METAR EGKK 240450Z 24003KT 180V270 CAVOK 07/06 Q1018
05:20
V
7 °C 10 km+ - 210° 210° 1 kt METAR EGKK 240420Z 21001KT CAVOK 07/07 Q1018
04:50
V
7 °C 10 km+ - Var Var 1 kt METAR EGKK 240350Z VRB01KT 9999 SCT033 07/07 Q1018
04:20
V
7 °C 10 km+ - 110° 110° 1 kt METAR EGKK 240320Z 11001KT 9999 FEW032 07/06 Q1018
03:50
V
7 °C 10 km+ - Var Var 1 kt METAR EGKK 240250Z VRB01KT CAVOK 07/06 Q1017
03:20
V
7 °C 10 km+ - Var Var 2 kt METAR EGKK 240220Z VRB02KT CAVOK 07/07 Q1017
02:50
V
8 °C 10 km+ - Var Var 1 kt METAR EGKK 240150Z VRB01KT CAVOK 08/07 Q1017
02:20
V
8 °C 10 km+ - 220° 220° 3 kt METAR EGKK 240120Z 22003KT 200V280 CAVOK 08/07 Q1017
01:50
V
9 °C 10 km+ - 200° 200° 3 kt METAR EGKK 240050Z 20003KT CAVOK 09/07 Q1017
01:20
V
9 °C 10 km+ - 210° 210° 4 kt METAR EGKK 240020Z 21004KT CAVOK 09/08 Q1017
00:50
V
10 °C 10 km+ - 210° 210° 5 kt METAR EGKK 232350Z 21005KT CAVOK 10/08 Q1017
00:20
V
10 °C 10 km+ - 210° 210° 4 kt METAR EGKK 232320Z 21004KT CAVOK 10/08 Q1017

May 23, 2024

Time Code Weather Temp. Visibility Ceiling Wind METAR/SPECI
23:50
V
10 °C 10 km+ - 220° 220° 3 kt METAR EGKK 232250Z 22003KT CAVOK 10/08 Q1017
23:20
V
10 °C 10 km+ - 220° 220° 3 kt METAR EGKK 232220Z 22003KT CAVOK 10/08 Q1017
22:50
V
11 °C 10 km+ - 230° 230° 3 kt METAR EGKK 232150Z 23003KT CAVOK 11/08 Q1017
22:20
V
11 °C 10 km+ - 240° 240° 4 kt METAR EGKK 232120Z 24004KT CAVOK 11/07 Q1016
21:50
V
11 °C 10 km+ - 260° 260° 6 kt METAR EGKK 232050Z 26006KT CAVOK 11/07 Q1016
21:20
V
12 °C 10 km+ - 250° 250° 5 kt METAR EGKK 232020Z 25005KT CAVOK 12/07 Q1016
20:50
V
13 °C 10 km+ - 250° 250° 6 kt METAR EGKK 231950Z 25006KT CAVOK 13/07 Q1016
20:20
V
15 °C 10 km+ - 270° 270° 8 kt METAR EGKK 231920Z 27008KT CAVOK 15/07 Q1015
19:50
V
15 °C 10 km+ - 270° 270° 11 kt METAR EGKK 231850Z 27011KT 9999 FEW045 15/07 Q1015
19:20
V
16 °C 10 km+ - 270° 270° 11 kt METAR EGKK 231820Z 27011KT 9999 FEW041 16/08 Q1015
18:50
V
17 °C 10 km+ - 270° 270° 11 kt METAR EGKK 231750Z 27011KT 9999 FEW045 17/08 Q1014
18:20
V
17 °C 10 km+ - 270° 270° 10 kt METAR EGKK 231720Z 27010KT CAVOK 17/09 Q1014
17:50
V
18 °C 10 km+ - 280° 280° 10 kt METAR EGKK 231650Z 28010KT 9999 FEW039 18/09 Q1014
17:20
V
18 °C 10 km+ - 290° 290° 12 kt METAR EGKK 231620Z 29012KT 9999 FEW039 18/08 Q1014
16:50
V
18 °C 10 km+ - 270° 270° 10 kt METAR EGKK 231550Z 27010KT 240V310 9999 FEW040 18/09 Q1014
16:20
V
18 °C 10 km+ - 260° 260° 9 kt METAR EGKK 231520Z 26009KT 230V300 9999 FEW039 18/09 Q1014
15:50
V
18 °C 10 km+ - 280° 280° 12 kt METAR EGKK 231450Z 28012KT 9999 FEW036 18/09 Q1014
15:20
V
18 °C 10 km+ - 290° 290° 10 kt METAR EGKK 231420Z 29010KT 9999 FEW036 18/09 Q1014
14:50
V
18 °C 10 km+ - 250° 250° 10 kt METAR EGKK 231350Z 25010KT 220V290 9999 FEW036 18/09 Q1014
14:20
V
18 °C 10 km+ - 270° 270° 11 kt METAR EGKK 231320Z 27011KT 9999 SCT032 18/10 Q1014
13:50
V
17 °C 10 km+ - 260° 260° 8 kt METAR EGKK 231250Z 26008KT 230V310 9999 SCT030 17/10 Q1014
13:20
V
17 °C 10 km+ - 250° 250° 9 kt METAR EGKK 231220Z 25009KT 210V290 9999 SCT027 17/10 Q1014
12:50
M
16 °C 10 km+ 2,700 ft 270° 270° 10 kt METAR EGKK 231150Z 27010KT 9999 BKN027 16/10 Q1014
12:20
M
16 °C 10 km+ 2,500 ft 250° 250° 9 kt METAR EGKK 231120Z 25009KT 9999 BKN025 16/10 Q1014
11:50
M
15 °C 10 km+ 2,400 ft 240° 240° 9 kt METAR EGKK 231050Z 24009KT 9999 BKN024 15/10 Q1014
11:20
M
15 °C 10 km+ 2,400 ft 260° 260° 10 kt METAR EGKK 231020Z 26010KT 230V290 9999 BKN024 15/10 Q1014
10:50
M
15 °C 10 km+ 2,500 ft 250° 250° 11 kt METAR EGKK 230950Z 25011KT 9999 BKN025 15/10 Q1014
10:20
M
14 °C 10 km+ 2,000 ft 250° 250° 9 kt METAR EGKK 230920Z 25009KT 9999 BKN020 14/10 Q1014
09:50
M
15 °C 10 km+ 2,000 ft 260° 260° 9 kt METAR EGKK 230850Z 26009KT 9999 BKN020 15/10 Q1014
09:20
M
14 °C 10 km+ 1,800 ft 260° 260° 10 kt METAR EGKK 230820Z 26010KT 9999 BKN018 14/11 Q1013
08:50
M
14 °C 10 km+ 1,800 ft 280° 280° 11 kt METAR EGKK 230750Z 28011KT 9999 BKN018 14/11 Q1013
08:20
M
14 °C 10 km+ 1,200 ft 250° 250° 8 kt METAR EGKK 230720Z 25008KT 9999 BKN012 14/12 Q1013
07:50
V
13 °C 10 km+ - 250° 250° 8 kt METAR EGKK 230650Z 25008KT 9999 SCT012 13/12 Q1013
07:20
V
13 °C 10 km+ - 230° 230° 7 kt METAR EGKK 230620Z 23007KT 200V260 9999 SCT012 13/11 Q1013
06:50
V
13 °C 10 km+ - 240° 240° 8 kt METAR EGKK 230550Z 24008KT 9999 SCT013 13/11 Q1013
Report a change